Terminal Aerodrome Forecast
Issued by NWS

Home | Current Version | Previous Version | Text Only | Print | Product List | Glossary Off
Versions: 1 2 3 4 5 6 7 8 9 10 11 12 13 14 15

000
FTUS43 KICT 072300
TAFCNU
TAF
KCNU 072320Z 0800/0824 20014G22KT P6SM FEW070
     FM080800 22009KT P6SM VCTS BKN070CB
     FM081300 02013G20KT P6SM BKN150
     FM082200 36009KT P6SM BKN150=

USA.gov is the U.S. government's official web portal to all federal, state and local government web resources and services.